sensor_id;sensor_type;location;lat;lon;timestamp;P1;durP1;ratioP1;P2;durP2;ratioP2
1164;SDS011;571;50.930;6.926;2023-05-07T02:46:10;4.00;;;3.70;;
1164;SDS011;571;50.930;6.926;2023-05-07T02:48:40;4.40;;;3.93;;
1164;SDS011;571;50.930;6.926;2023-05-07T02:51:10;4.77;;;4.37;;
1164;SDS011;571;50.930;6.926;2023-05-07T02:53:40;4.67;;;4.10;;
1164;SDS011;571;50.930;6.926;2023-05-07T02:56:09;4.63;;;4.20;;
1164;SDS011;571;50.930;6.926;2023-05-07T02:58:39;4.60;;;3.67;;
1164;SDS011;571;50.930;6.926;2023-05-07T03:01:14;3.77;;;3.47;;
1164;SDS011;571;50.930;6.926;2023-05-07T03:03:44;5.00;;;4.60;;
1164;SDS011;571;50.930;6.926;2023-05-07T03:09:09;4.73;;;4.13;;
1164;SDS011;571;50.930;6.926;2023-05-07T03:11:36;6.40;;;4.33;;
1164;SDS011;571;50.930;6.926;2023-05-07T03:14:14;4.27;;;3.80;;
1164;SDS011;571;50.930;6.926;2023-05-07T03:16:48;5.53;;;4.63;;
1164;SDS011;571;50.930;6.926;2023-05-07T03:19:17;5.07;;;3.50;;
1164;SDS011;571;50.930;6.926;2023-05-07T03:21:53;4.00;;;3.63;;
1164;SDS011;571;50.930;6.926;2023-05-07T03:24:20;5.43;;;4.10;;
1164;SDS011;571;50.930;6.926;2023-05-07T03:27:00;4.50;;;4.03;;
1164;SDS011;571;50.930;6.926;2023-05-07T03:29:33;5.90;;;4.20;;
1164;SDS011;571;50.930;6.926;2023-05-07T03:32:09;4.97;;;4.57;;
1164;SDS011;571;50.930;6.926;2023-05-07T03:34:42;4.73;;;4.10;;
1164;SDS011;571;50.930;6.926;2023-05-07T03:37:14;4.47;;;4.07;;
1164;SDS011;571;50.930;6.926;2023-05-07T03:39:44;4.90;;;4.50;;
1164;SDS011;571;50.930;6.926;2023-05-07T03:42:15;6.50;;;3.67;;
1164;SDS011;571;50.930;6.926;2023-05-07T03:44:42;6.07;;;4.10;;
1164;SDS011;571;50.930;6.926;2023-05-07T03:47:17;3.80;;;3.50;;
1164;SDS011;571;50.930;6.926;2023-05-07T03:49:47;5.63;;;3.93;;
1164;SDS011;571;50.930;6.926;2023-05-07T03:52:21;7.93;;;5.37;;
1164;SDS011;571;50.930;6.926;2023-05-07T03:54:56;4.57;;;4.17;;
1164;SDS011;571;50.930;6.926;2023-05-07T03:57:35;5.23;;;4.70;;
1164;SDS011;571;50.930;6.926;2023-05-07T04:00:08;3.90;;;3.60;;
1164;SDS011;571;50.930;6.926;2023-05-07T04:03:07;5.33;;;4.50;;
1164;SDS011;571;50.930;6.926;2023-05-07T04:05:36;3.97;;;3.67;;
1164;SDS011;571;50.930;6.926;2023-05-07T04:08:07;4.33;;;4.03;;
1164;SDS011;571;50.930;6.926;2023-05-07T04:10:40;5.17;;;4.07;;
1164;SDS011;571;50.930;6.926;2023-05-07T04:13:12;4.27;;;3.53;;
1164;SDS011;571;50.930;6.926;2023-05-07T04:15:48;5.80;;;3.70;;
1164;SDS011;571;50.930;6.926;2023-05-07T04:18:32;4.67;;;3.83;;
1164;SDS011;571;50.930;6.926;2023-05-07T04:21:08;4.60;;;4.20;;
1164;SDS011;571;50.930;6.926;2023-05-07T04:23:40;4.10;;;3.70;;
1164;SDS011;571;50.930;6.926;2023-05-07T04:26:14;3.60;;;3.30;;
1164;SDS011;571;50.930;6.926;2023-05-07T04:29:09;4.53;;;4.13;;
1164;SDS011;571;50.930;6.926;2023-05-07T04:32:10;4.77;;;3.40;;
1164;SDS011;571;50.930;6.926;2023-05-07T04:34:48;4.03;;;3.63;;
1164;SDS011;571;50.930;6.926;2023-05-07T04:37:19;6.53;;;3.37;;
1164;SDS011;571;50.930;6.926;2023-05-07T04:39:51;3.97;;;3.63;;
1164;SDS011;571;50.930;6.926;2023-05-07T04:42:36;3.93;;;3.53;;
1164;SDS011;571;50.930;6.926;2023-05-07T04:45:10;4.83;;;3.53;;
1164;SDS011;571;50.930;6.926;2023-05-07T04:47:46;4.30;;;3.87;;
1164;SDS011;571;50.930;6.926;2023-05-07T04:50:19;3.50;;;3.20;;
1164;SDS011;571;50.930;6.926;2023-05-07T04:52:57;3.83;;;3.43;;
1164;SDS011;571;50.930;6.926;2023-05-07T04:55:34;3.83;;;3.10;;
1164;SDS011;571;50.930;6.926;2023-05-07T04:58:11;5.47;;;3.20;;
1164;SDS011;571;50.930;6.926;2023-05-07T05:00:41;3.83;;;3.40;;
1164;SDS011;571;50.930;6.926;2023-05-07T05:03:18;4.20;;;3.60;;
1164;SDS011;571;50.930;6.926;2023-05-07T05:06:00;4.70;;;3.70;;
1164;SDS011;571;50.930;6.926;2023-05-07T05:08:40;3.80;;;3.33;;
1164;SDS011;571;50.930;6.926;2023-05-07T05:11:24;6.83;;;3.83;;
1164;SDS011;571;50.930;6.926;2023-05-07T05:14:06;5.57;;;2.70;;
1164;SDS011;571;50.930;6.926;2023-05-07T05:16:43;4.27;;;2.80;;
1164;SDS011;571;50.930;6.926;2023-05-07T05:19:58;3.10;;;2.60;;
1164;SDS011;571;50.930;6.926;2023-05-07T05:22:39;3.17;;;2.90;;
1164;SDS011;571;50.930;6.926;2023-05-07T05:25:06;3.00;;;2.70;;
1164;SDS011;571;50.930;6.926;2023-05-07T05:27:39;3.53;;;3.20;;
1164;SDS011;571;50.930;6.926;2023-05-07T05:30:26;3.43;;;2.60;;
1164;SDS011;571;50.930;6.926;2023-05-07T05:33:07;6.33;;;3.33;;
1164;SDS011;571;50.930;6.926;2023-05-07T05:35:44;8.80;;;3.10;;
1164;SDS011;571;50.930;6.926;2023-05-07T05:38:12;3.00;;;2.30;;
1164;SDS011;571;50.930;6.926;2023-05-07T05:40:42;3.10;;;2.40;;
1164;SDS011;571;50.930;6.926;2023-05-07T05:43:11;3.40;;;2.80;;
1164;SDS011;571;50.930;6.926;2023-05-07T05:45:45;3.37;;;2.93;;
1164;SDS011;571;50.930;6.926;2023-05-07T05:48:18;3.10;;;2.57;;
1164;SDS011;571;50.930;6.926;2023-05-07T05:50:48;4.47;;;2.57;;
1164;SDS011;571;50.930;6.926;2023-05-07T05:53:27;3.20;;;2.67;;
1164;SDS011;571;50.930;6.926;2023-05-07T05:56:06;4.07;;;3.00;;
1164;SDS011;571;50.930;6.926;2023-05-07T05:58:38;5.83;;;2.73;;
1164;SDS011;571;50.930;6.926;2023-05-07T06:01:15;3.90;;;2.60;;
1164;SDS011;571;50.930;6.926;2023-05-07T06:03:47;2.43;;;2.23;;
1164;SDS011;571;50.930;6.926;2023-05-07T06:06:16;2.50;;;2.30;;
1164;SDS011;571;50.930;6.926;2023-05-07T06:12:11;2.63;;;2.43;;
1164;SDS011;571;50.930;6.926;2023-05-07T06:14:57;2.40;;;2.20;;
1164;SDS011;571;50.930;6.926;2023-05-07T06:17:40;4.70;;;2.30;;
1164;SDS011;571;50.930;6.926;2023-05-07T06:20:28;2.60;;;2.40;;
1164;SDS011;571;50.930;6.926;2023-05-07T06:25:14;2.87;;;2.60;;
1164;SDS011;571;50.930;6.926;2023-05-07T06:26:16;3.00;;;2.80;;
1164;SDS011;571;50.930;6.926;2023-05-07T06:29:08;3.37;;;2.50;;
1164;SDS011;571;50.930;6.926;2023-05-07T06:32:14;3.20;;;2.90;;
1164;SDS011;571;50.930;6.926;2023-05-07T06:35:01;2.70;;;2.50;;
1164;SDS011;571;50.930;6.926;2023-05-07T06:37:39;2.63;;;2.20;;
1164;SDS011;571;50.930;6.926;2023-05-07T06:40:40;3.90;;;2.60;;
1164;SDS011;571;50.930;6.926;2023-05-07T06:44:25;2.90;;;2.70;;
1164;SDS011;571;50.930;6.926;2023-05-07T06:47:20;4.50;;;2.70;;
1164;SDS011;571;50.930;6.926;2023-05-07T06:50:00;2.43;;;2.23;;
1164;SDS011;571;50.930;6.926;2023-05-07T06:52:47;2.60;;;2.40;;
1164;SDS011;571;50.930;6.926;2023-05-07T06:55:21;4.27;;;2.77;;
1164;SDS011;571;50.930;6.926;2023-05-07T06:58:22;2.67;;;2.47;;
1164;SDS011;571;50.930;6.926;2023-05-07T07:01:27;2.50;;;2.30;;
1164;SDS011;571;50.930;6.926;2023-05-07T07:04:49;2.73;;;2.23;;
1164;SDS011;571;50.930;6.926;2023-05-07T07:10:27;3.17;;;2.33;;
1164;SDS011;571;50.930;6.926;2023-05-07T07:11:14;4.20;;;2.60;;
1164;SDS011;571;50.930;6.926;2023-05-07T07:45:35;1.73;;;1.63;;
1164;SDS011;571;50.930;6.926;2023-05-07T08:21:13;4.37;;;2.50;;
1164;SDS011;571;50.930;6.926;2023-05-07T08:24:29;5.20;;;2.70;;
1164;SDS011;571;50.930;6.926;2023-05-07T10:58:28;7.10;;;2.47;;
1164;SDS011;571;50.930;6.926;2023-05-07T11:14:58;2.07;;;1.97;;
1164;SDS011;571;50.930;6.926;2023-05-07T11:17:27;6.63;;;2.43;;
1164;SDS011;571;50.930;6.926;2023-05-07T11:20:14;2.47;;;2.27;;
1164;SDS011;571;50.930;6.926;2023-05-07T11:23:00;3.70;;;1.97;;
1164;SDS011;571;50.930;6.926;2023-05-07T11:26:04;1.50;;;1.40;;
1164;SDS011;571;50.930;6.926;2023-05-07T11:28:53;4.90;;;2.80;;
1164;SDS011;571;50.930;6.926;2023-05-07T11:31:51;7.23;;;2.40;;
1164;SDS011;571;50.930;6.926;2023-05-07T11:34:52;1.87;;;1.70;;
1164;SDS011;571;50.930;6.926;2023-05-07T11:40:26;10.33;;;2.23;;
1164;SDS011;571;50.930;6.926;2023-05-07T11:42:53;7.70;;;3.13;;
1164;SDS011;571;50.930;6.926;2023-05-07T11:45:31;21.00;;;4.63;;
1164;SDS011;571;50.930;6.926;2023-05-07T11:48:12;14.30;;;3.20;;
1164;SDS011;571;50.930;6.926;2023-05-07T11:50:59;22.63;;;4.50;;
1164;SDS011;571;50.930;6.926;2023-05-07T11:53:55;12.03;;;3.33;;
1164;SDS011;571;50.930;6.926;2023-05-07T11:59:40;32.33;;;5.63;;
1164;SDS011;571;50.930;6.926;2023-05-07T12:02:18;22.40;;;5.20;;
1164;SDS011;571;50.930;6.926;2023-05-07T12:04:54;31.27;;;4.50;;
1164;SDS011;571;50.930;6.926;2023-05-07T12:07:29;18.33;;;3.90;;
1164;SDS011;571;50.930;6.926;2023-05-07T12:09:56;21.20;;;4.40;;
1164;SDS011;571;50.930;6.926;2023-05-07T12:12:28;30.57;;;6.30;;
1164;SDS011;571;50.930;6.926;2023-05-07T12:15:22;37.10;;;7.47;;
1164;SDS011;571;50.930;6.926;2023-05-07T12:18:04;19.33;;;5.53;;
1164;SDS011;571;50.930;6.926;2023-05-07T12:20:33;35.87;;;6.47;;
1164;SDS011;571;50.930;6.926;2023-05-07T12:23:10;22.57;;;5.37;;
1164;SDS011;571;50.930;6.926;2023-05-07T12:25:56;14.30;;;3.97;;
1164;SDS011;571;50.930;6.926;2023-05-07T12:28:35;24.93;;;6.33;;
1164;SDS011;571;50.930;6.926;2023-05-07T12:31:22;49.03;;;8.13;;
1164;SDS011;571;50.930;6.926;2023-05-07T12:33:57;13.10;;;3.67;;
1164;SDS011;571;50.930;6.926;2023-05-07T12:36:26;4.43;;;2.23;;
1164;SDS011;571;50.930;6.926;2023-05-07T12:39:05;47.77;;;8.10;;
1164;SDS011;571;50.930;6.926;2023-05-07T12:41:43;34.07;;;7.93;;
1164;SDS011;571;50.930;6.926;2023-05-07T12:44:19;38.43;;;6.67;;
1164;SDS011;571;50.930;6.926;2023-05-07T12:46:54;27.23;;;5.87;;
1164;SDS011;571;50.930;6.926;2023-05-07T12:49:20;11.63;;;3.80;;
1164;SDS011;571;50.930;6.926;2023-05-07T12:51:51;16.60;;;4.20;;
1164;SDS011;571;50.930;6.926;2023-05-07T12:54:28;19.30;;;3.90;;
1164;SDS011;571;50.930;6.926;2023-05-07T12:57:00;11.37;;;3.67;;
1164;SDS011;571;50.930;6.926;2023-05-07T12:59:31;17.37;;;5.03;;
1164;SDS011;571;50.930;6.926;2023-05-07T13:01:58;14.87;;;3.30;;
1164;SDS011;571;50.930;6.926;2023-05-07T13:04:25;4.27;;;2.20;;
1164;SDS011;571;50.930;6.926;2023-05-07T13:06:53;11.33;;;2.77;;
1164;SDS011;571;50.930;6.926;2023-05-07T13:09:20;2.23;;;2.00;;
1164;SDS011;571;50.930;6.926;2023-05-07T13:11:47;14.80;;;4.60;;
1164;SDS011;571;50.930;6.926;2023-05-07T13:14:17;7.20;;;3.20;;
1164;SDS011;571;50.930;6.926;2023-05-07T13:16:51;12.17;;;3.03;;
1164;SDS011;571;50.930;6.926;2023-05-07T13:19:21;6.63;;;3.07;;
1164;SDS011;571;50.930;6.926;2023-05-07T13:21:55;10.80;;;3.43;;
1164;SDS011;571;50.930;6.926;2023-05-07T13:24:25;4.03;;;3.00;;
1164;SDS011;571;50.930;6.926;2023-05-07T13:27:00;9.80;;;2.90;;
1164;SDS011;571;50.930;6.926;2023-05-07T13:29:32;6.30;;;2.40;;
1164;SDS011;571;50.930;6.926;2023-05-07T13:32:09;3.30;;;2.20;;
1164;SDS011;571;50.930;6.926;2023-05-07T13:34:38;3.33;;;2.30;;
1164;SDS011;571;50.930;6.926;2023-05-07T13:47:32;9.40;;;3.17;;
1164;SDS011;571;50.930;6.926;2023-05-07T13:50:02;2.10;;;2.00;;
1164;SDS011;571;50.930;6.926;2023-05-07T13:52:43;2.30;;;1.73;;
1164;SDS011;571;50.930;6.926;2023-05-07T13:55:16;3.30;;;2.97;;
1164;SDS011;571;50.930;6.926;2023-05-07T14:07:54;2.90;;;2.30;;
1164;SDS011;571;50.930;6.926;2023-05-07T14:16:53;3.53;;;2.80;;
1164;SDS011;571;50.930;6.926;2023-05-07T14:19:54;8.73;;;3.50;;
1164;SDS011;571;50.930;6.926;2023-05-07T14:28:52;3.10;;;2.40;;
1164;SDS011;571;50.930;6.926;2023-05-07T14:48:45;3.43;;;2.43;;
1164;SDS011;571;50.930;6.926;2023-05-07T14:58:52;3.13;;;2.80;;
1164;SDS011;571;50.930;6.926;2023-05-07T15:02:01;4.37;;;2.63;;
1164;SDS011;571;50.930;6.926;2023-05-07T15:12:03;3.73;;;3.33;;
1164;SDS011;571;50.930;6.926;2023-05-07T15:30:39;3.87;;;2.80;;
1164;SDS011;571;50.930;6.926;2023-05-07T15:33:12;3.97;;;2.20;;
1164;SDS011;571;50.930;6.926;2023-05-07T15:35:44;3.43;;;2.40;;
1164;SDS011;571;50.930;6.926;2023-05-07T15:38:23;3.10;;;2.07;;
1164;SDS011;571;50.930;6.926;2023-05-07T15:40:50;2.47;;;2.27;;
1164;SDS011;571;50.930;6.926;2023-05-07T15:43:17;8.83;;;3.00;;
1164;SDS011;571;50.930;6.926;2023-05-07T15:45:47;6.43;;;3.33;;
1164;SDS011;571;50.930;6.926;2023-05-07T15:48:15;4.00;;;2.63;;
1164;SDS011;571;50.930;6.926;2023-05-07T15:50:42;4.63;;;3.03;;
1164;SDS011;571;50.930;6.926;2023-05-07T15:53:14;3.17;;;2.90;;
1164;SDS011;571;50.930;6.926;2023-05-07T15:55:42;4.10;;;3.50;;
1164;SDS011;571;50.930;6.926;2023-05-07T15:58:09;5.13;;;3.73;;
1164;SDS011;571;50.930;6.926;2023-05-07T16:04:01;3.43;;;2.40;;
1164;SDS011;571;50.930;6.926;2023-05-07T16:06:35;4.27;;;2.67;;
1164;SDS011;571;50.930;6.926;2023-05-07T16:09:16;4.37;;;3.03;;
1164;SDS011;571;50.930;6.926;2023-05-07T16:11:45;4.13;;;3.50;;
1164;SDS011;571;50.930;6.926;2023-05-07T16:14:14;2.80;;;2.60;;
1164;SDS011;571;50.930;6.926;2023-05-07T16:26:44;2.73;;;2.53;;
1164;SDS011;571;50.930;6.926;2023-05-07T16:29:14;2.53;;;2.33;;
1164;SDS011;571;50.930;6.926;2023-05-07T16:31:42;6.47;;;3.20;;
1164;SDS011;571;50.930;6.926;2023-05-07T16:50:13;2.40;;;2.10;;
1164;SDS011;571;50.930;6.926;2023-05-07T16:52:58;3.80;;;2.83;;
1164;SDS011;571;50.930;6.926;2023-05-07T16:55:41;3.03;;;2.73;;
1164;SDS011;571;50.930;6.926;2023-05-07T16:58:08;9.23;;;6.90;;
1164;SDS011;571;50.930;6.926;2023-05-07T17:00:44;4.43;;;3.60;;
1164;SDS011;571;50.930;6.926;2023-05-07T17:03:11;3.30;;;3.00;;
1164;SDS011;571;50.930;6.926;2023-05-07T17:05:42;6.67;;;4.50;;
1164;SDS011;571;50.930;6.926;2023-05-07T17:08:09;3.10;;;2.00;;
1164;SDS011;571;50.930;6.926;2023-05-07T17:10:37;3.90;;;2.87;;
1164;SDS011;571;50.930;6.926;2023-05-07T17:13:04;2.27;;;2.07;;
1164;SDS011;571;50.930;6.926;2023-05-07T17:15:31;4.30;;;2.37;;
1164;SDS011;571;50.930;6.926;2023-05-07T17:17:57;4.20;;;2.00;;
1164;SDS011;571;50.930;6.926;2023-05-07T17:20:24;2.20;;;2.00;;
1164;SDS011;571;50.930;6.926;2023-05-07T17:22:52;3.60;;;2.53;;
1164;SDS011;571;50.930;6.926;2023-05-07T17:25:19;2.43;;;1.90;;
1164;SDS011;571;50.930;6.926;2023-05-07T17:27:47;3.00;;;2.07;;
1164;SDS011;571;50.930;6.926;2023-05-07T17:30:13;3.97;;;1.80;;
1164;SDS011;571;50.930;6.926;2023-05-07T17:32:40;2.50;;;2.30;;
1164;SDS011;571;50.930;6.926;2023-05-07T17:35:07;2.90;;;1.93;;
1164;SDS011;571;50.930;6.926;2023-05-07T17:37:34;3.57;;;2.47;;
1164;SDS011;571;50.930;6.926;2023-05-07T17:40:26;2.20;;;2.00;;
1164;SDS011;571;50.930;6.926;2023-05-07T17:48:51;4.60;;;2.40;;
1164;SDS011;571;50.930;6.926;2023-05-07T17:54:51;2.60;;;2.40;;
1164;SDS011;571;50.930;6.926;2023-05-07T17:57:33;2.50;;;2.30;;
1164;SDS011;571;50.930;6.926;2023-05-07T18:00:43;5.67;;;2.90;;
1164;SDS011;571;50.930;6.926;2023-05-07T18:03:30;3.93;;;2.67;;
1164;SDS011;571;50.930;6.926;2023-05-07T18:06:10;3.40;;;3.10;;
1164;SDS011;571;50.930;6.926;2023-05-07T18:12:01;7.17;;;2.93;;
1164;SDS011;571;50.930;6.926;2023-05-07T18:14:36;5.30;;;3.20;;
1164;SDS011;571;50.930;6.926;2023-05-07T18:17:03;4.10;;;3.13;;
1164;SDS011;571;50.930;6.926;2023-05-07T18:19:30;3.13;;;2.90;;
1164;SDS011;571;50.930;6.926;2023-05-07T18:21:57;4.20;;;3.70;;
1164;SDS011;571;50.930;6.926;2023-05-07T18:24:23;4.10;;;3.70;;
1164;SDS011;571;50.930;6.926;2023-05-07T18:26:51;7.73;;;3.90;;
1164;SDS011;571;50.930;6.926;2023-05-07T18:29:18;4.63;;;3.90;;
1164;SDS011;571;50.930;6.926;2023-05-07T18:32:15;4.03;;;3.40;;
1164;SDS011;571;50.930;6.926;2023-05-07T18:44:55;3.97;;;3.57;;
1164;SDS011;571;50.930;6.926;2023-05-07T18:47:25;4.67;;;4.17;;
1164;SDS011;571;50.930;6.926;2023-05-07T19:12:24;3.73;;;3.43;;
1164;SDS011;571;50.930;6.926;2023-05-07T19:14:54;4.10;;;3.20;;
1164;SDS011;571;50.930;6.926;2023-05-07T19:17:28;4.30;;;3.00;;
1164;SDS011;571;50.930;6.926;2023-05-07T19:20:13;4.40;;;4.00;;
1164;SDS011;571;50.930;6.926;2023-05-07T19:22:42;4.13;;;3.73;;
1164;SDS011;571;50.930;6.926;2023-05-07T19:25:13;4.40;;;3.40;;
1164;SDS011;571;50.930;6.926;2023-05-07T19:27:43;3.70;;;3.20;;
1164;SDS011;571;50.930;6.926;2023-05-07T19:30:15;5.30;;;4.07;;
1164;SDS011;571;50.930;6.926;2023-05-07T19:32:53;4.27;;;3.87;;
1164;SDS011;571;50.930;6.926;2023-05-07T19:35:20;6.70;;;3.73;;
1164;SDS011;571;50.930;6.926;2023-05-07T19:37:51;8.33;;;4.67;;
1164;SDS011;571;50.930;6.926;2023-05-07T19:40:21;7.17;;;4.03;;
1164;SDS011;571;50.930;6.926;2023-05-07T19:42:51;4.83;;;4.23;;
1164;SDS011;571;50.930;6.926;2023-05-07T19:45:21;7.00;;;4.70;;
1164;SDS011;571;50.930;6.926;2023-05-07T19:47:59;5.97;;;4.30;;
1164;SDS011;571;50.930;6.926;2023-05-07T19:50:31;5.00;;;3.80;;
1164;SDS011;571;50.930;6.926;2023-05-07T19:53:02;3.90;;;3.57;;
1164;SDS011;571;50.930;6.926;2023-05-07T19:55:33;5.70;;;4.70;;
1164;SDS011;571;50.930;6.926;2023-05-07T19:58:05;5.27;;;4.77;;
1164;SDS011;571;50.930;6.926;2023-05-07T20:00:41;5.00;;;4.50;;
1164;SDS011;571;50.930;6.926;2023-05-07T20:03:08;6.20;;;5.03;;
1164;SDS011;571;50.930;6.926;2023-05-07T20:05:50;5.97;;;5.37;;
1164;SDS011;571;50.930;6.926;2023-05-07T20:08:17;7.77;;;5.40;;
1164;SDS011;571;50.930;6.926;2023-05-07T20:10:55;5.70;;;5.20;;
1164;SDS011;571;50.930;6.926;2023-05-07T20:13:32;5.90;;;5.37;;
1164;SDS011;571;50.930;6.926;2023-05-07T20:16:04;8.13;;;5.77;;
1164;SDS011;571;50.930;6.926;2023-05-07T20:18:38;5.50;;;5.03;;
1164;SDS011;571;50.930;6.926;2023-05-07T20:21:10;6.00;;;5.37;;
1164;SDS011;571;50.930;6.926;2023-05-07T20:23:39;9.10;;;5.87;;
1164;SDS011;571;50.930;6.926;2023-05-07T20:26:11;6.27;;;5.67;;
1164;SDS011;571;50.930;6.926;2023-05-07T20:28:49;7.20;;;5.10;;
1164;SDS011;571;50.930;6.926;2023-05-07T20:31:21;7.50;;;5.20;;
1164;SDS011;571;50.930;6.926;2023-05-07T20:33:53;5.10;;;4.70;;
1164;SDS011;571;50.930;6.926;2023-05-07T20:36:31;5.90;;;5.33;;
1164;SDS011;571;50.930;6.926;2023-05-07T20:39:21;7.30;;;5.47;;
1164;SDS011;571;50.930;6.926;2023-05-07T20:41:51;6.50;;;5.60;;
1164;SDS011;571;50.930;6.926;2023-05-07T20:44:22;5.80;;;5.30;;
1164;SDS011;571;50.930;6.926;2023-05-07T20:46:58;6.57;;;5.83;;
1164;SDS011;571;50.930;6.926;2023-05-07T20:49:38;5.87;;;5.33;;
1164;SDS011;571;50.930;6.926;2023-05-07T20:52:19;6.50;;;5.90;;
1164;SDS011;571;50.930;6.926;2023-05-07T20:54:53;7.00;;;6.40;;
1164;SDS011;571;50.930;6.926;2023-05-07T20:57:31;7.90;;;6.23;;
1164;SDS011;571;50.930;6.926;2023-05-07T21:00:06;7.30;;;6.47;;
1164;SDS011;571;50.930;6.926;2023-05-07T21:02:48;7.50;;;6.67;;
1164;SDS011;571;50.930;6.926;2023-05-07T21:05:29;10.20;;;6.43;;
1164;SDS011;571;50.930;6.926;2023-05-07T21:08:01;11.63;;;6.70;;
1164;SDS011;571;50.930;6.926;2023-05-07T21:10:34;7.17;;;6.47;;
1164;SDS011;571;50.930;6.926;2023-05-07T21:13:11;7.70;;;7.00;;
1164;SDS011;571;50.930;6.926;2023-05-07T21:15:50;8.10;;;7.30;;
1164;SDS011;571;50.930;6.926;2023-05-07T21:18:35;7.63;;;6.93;;
1164;SDS011;571;50.930;6.926;2023-05-07T21:24:20;7.60;;;6.90;;
1164;SDS011;571;50.930;6.926;2023-05-07T21:27:00;9.20;;;7.33;;
1164;SDS011;571;50.930;6.926;2023-05-07T21:29:35;8.37;;;7.57;;
1164;SDS011;571;50.930;6.926;2023-05-07T21:32:11;8.37;;;6.87;;
1164;SDS011;571;50.930;6.926;2023-05-07T21:34:40;9.30;;;8.50;;
1164;SDS011;571;50.930;6.926;2023-05-07T21:37:10;7.10;;;6.50;;
1164;SDS011;571;50.930;6.926;2023-05-07T21:39:45;5.43;;;5.03;;
1164;SDS011;571;50.930;6.926;2023-05-07T21:42:35;6.53;;;5.43;;
1164;SDS011;571;50.930;6.926;2023-05-07T21:45:10;7.70;;;5.77;;
1164;SDS011;571;50.930;6.926;2023-05-07T21:47:46;7.90;;;5.10;;
1164;SDS011;571;50.930;6.926;2023-05-07T21:50:29;6.23;;;4.77;;
1164;SDS011;571;50.930;6.926;2023-05-07T21:53:09;5.40;;;4.80;;
1164;SDS011;571;50.930;6.926;2023-05-07T21:55:38;6.97;;;5.00;;
1164;SDS011;571;50.930;6.926;2023-05-07T21:58:14;5.37;;;4.97;;
